createdAt,value
2018-03-25T00:00:12.372Z,0.70
2018-03-25T00:02:40.506Z,0.90
2018-03-25T00:05:09.658Z,1.00
2018-03-25T00:07:37.802Z,1.10
2018-03-25T00:10:06.763Z,0.90
2018-03-25T00:12:34.905Z,0.90
2018-03-25T00:15:03.042Z,0.90
2018-03-25T00:17:31.947Z,1.00
2018-03-25T00:20:00.098Z,1.00
2018-03-25T00:22:28.251Z,1.00
2018-03-25T00:24:57.152Z,0.90
2018-03-25T00:27:25.352Z,0.90
2018-03-25T00:29:53.478Z,0.90
2018-03-25T00:32:21.660Z,0.50
2018-03-25T00:34:50.654Z,0.50
2018-03-25T00:37:19.591Z,0.70
2018-03-25T00:39:47.714Z,0.70
2018-03-25T00:42:16.622Z,0.80
2018-03-25T00:44:44.771Z,0.70
2018-03-25T00:47:13.692Z,0.60
2018-03-25T00:49:41.829Z,0.60
2018-03-25T00:52:09.974Z,0.60
2018-03-25T00:54:38.126Z,0.60
2018-03-25T00:57:06.322Z,0.50
2018-03-25T00:59:34.526Z,0.40
2018-03-25T01:02:02.680Z,0.20
2018-03-25T01:04:30.811Z,0.30
2018-03-25T01:06:58.971Z,0.30
2018-03-25T01:09:27.104Z,0.40
2018-03-25T01:11:55.270Z,0.40
2018-03-25T01:14:23.472Z,0.30
2018-03-25T01:16:52.360Z,0.40
2018-03-25T01:19:20.508Z,0.30
2018-03-25T01:21:48.666Z,0.30
2018-03-25T01:24:16.805Z,0.30
2018-03-25T01:27:00.597Z,0.40
2018-03-25T01:29:29.512Z,0.30
2018-03-25T01:31:57.645Z,0.30
2018-03-25T01:34:25.793Z,0.40
2018-03-25T01:36:53.950Z,0.30
2018-03-25T01:39:22.118Z,0.20
2018-03-25T01:41:50.341Z,0.00
2018-03-25T01:44:18.531Z,-0.20
2018-03-25T01:46:47.444Z,-0.30
2018-03-25T01:49:15.588Z,-0.30
2018-03-25T01:51:43.726Z,-0.10
2018-03-25T01:54:11.931Z,-0.10
2018-03-25T01:56:40.068Z,0.00
2018-03-25T01:59:08.215Z,0.00
2018-03-25T02:01:36.353Z,-0.10
2018-03-25T02:04:04.524Z,0.00
2018-03-25T02:06:33.421Z,0.00
2018-03-25T02:09:01.647Z,0.00
2018-03-25T02:11:29.793Z,0.00
2018-03-25T02:13:57.928Z,-0.20
2018-03-25T02:16:26.843Z,-0.10
2018-03-25T02:18:55.009Z,-0.20
2018-03-25T02:21:23.174Z,-0.20
2018-03-25T02:23:51.318Z,-0.20
2018-03-25T02:26:20.249Z,-0.40
2018-03-25T02:28:48.379Z,-0.40
2018-03-25T02:31:16.568Z,-0.20
2018-03-25T02:33:45.477Z,-0.20
2018-03-25T02:36:13.629Z,-0.20
2018-03-25T02:38:41.764Z,-0.20
2018-03-25T02:41:09.908Z,-0.10
2018-03-25T02:43:38.052Z,-0.20
2018-03-25T02:46:06.967Z,-0.30
2018-03-25T02:48:35.109Z,-0.30
2018-03-25T02:51:04.100Z,-0.20
2018-03-25T02:53:33.082Z,-0.20
2018-03-25T02:56:01.246Z,-0.20
2018-03-25T02:58:29.428Z,-0.20
2018-03-25T03:00:58.427Z,-0.30
2018-03-25T03:03:27.428Z,-0.30
2018-03-25T03:05:56.431Z,-0.30
2018-03-25T03:08:24.568Z,-0.30
2018-03-25T03:10:52.860Z,-0.50
2018-03-25T03:13:21.832Z,-0.50
2018-03-25T03:15:50.000Z,-0.50
2018-03-25T03:18:18.211Z,-0.40
2018-03-25T03:20:46.391Z,-0.40
2018-03-25T03:23:14.554Z,-0.40
2018-03-25T03:25:42.688Z,-0.50
2018-03-25T03:28:11.694Z,-0.60
2018-03-25T03:30:39.891Z,-0.60
2018-03-25T03:33:08.404Z,-0.60
2018-03-25T03:35:36.562Z,-0.50
2018-03-25T03:38:04.927Z,-0.50
2018-03-25T03:40:33.168Z,-0.50
2018-03-25T03:43:01.312Z,-0.50
2018-03-25T03:45:30.243Z,-0.50
2018-03-25T03:47:58.394Z,-0.50
2018-03-25T03:50:27.334Z,-0.50
2018-03-25T03:52:56.374Z,-0.50
2018-03-25T03:55:24.539Z,-0.50
2018-03-25T03:57:52.695Z,-0.50
2018-03-25T04:00:20.836Z,-0.60
2018-03-25T04:02:49.097Z,-0.60
2018-03-25T04:05:17.228Z,-0.60
2018-03-25T04:07:45.377Z,-0.70
2018-03-25T04:10:13.532Z,-0.70
2018-03-25T04:12:41.758Z,-0.70
2018-03-25T04:15:10.780Z,-0.80
2018-03-25T04:17:38.930Z,-0.80
2018-03-25T04:20:07.100Z,-0.70
2018-03-25T04:22:35.258Z,-0.60
2018-03-25T04:25:03.395Z,-0.60
2018-03-25T04:27:31.572Z,-0.60
2018-03-25T04:29:59.776Z,-0.60
2018-03-25T04:32:28.748Z,-0.60
2018-03-25T04:34:56.997Z,-0.60
2018-03-25T04:37:25.130Z,-0.70
2018-03-25T04:39:53.285Z,-0.70
2018-03-25T04:42:22.191Z,-0.60
2018-03-25T04:44:50.402Z,-0.70
2018-03-25T04:47:18.878Z,-0.70
2018-03-25T04:49:47.022Z,-0.70
2018-03-25T04:52:15.238Z,-0.80
2018-03-25T04:54:43.406Z,-0.70
2018-03-25T04:57:11.549Z,-0.70
2018-03-25T04:59:39.723Z,-0.70
2018-03-25T05:02:07.999Z,-0.80
2018-03-25T05:04:36.224Z,-0.80
2018-03-25T05:07:04.482Z,-0.70
2018-03-25T05:09:32.666Z,-0.70
2018-03-25T05:12:01.735Z,-0.70
2018-03-25T05:14:29.902Z,-0.90
2018-03-25T05:16:58.053Z,-0.90
2018-03-25T05:19:26.260Z,-0.90
2018-03-25T05:21:54.443Z,-0.90
2018-03-25T05:24:22.579Z,-0.90
2018-03-25T05:26:50.729Z,-0.80
2018-03-25T05:29:18.923Z,-0.70
2018-03-25T05:31:47.055Z,-0.70
2018-03-25T05:34:15.217Z,-0.90
2018-03-25T05:36:43.391Z,-0.90
2018-03-25T05:39:11.527Z,-0.90
2018-03-25T05:41:39.712Z,-0.80
2018-03-25T05:44:07.846Z,-0.70
2018-03-25T05:46:36.066Z,-0.60
2018-03-25T05:49:04.705Z,-0.50
2018-03-25T05:51:32.955Z,-0.40
2018-03-25T05:54:01.118Z,-0.30
2018-03-25T05:56:29.286Z,-0.30
2018-03-25T05:58:58.187Z,-0.20
2018-03-25T06:01:26.337Z,-0.30
2018-03-25T06:03:54.508Z,-0.80
2018-03-25T06:06:22.658Z,-0.80
2018-03-25T06:08:50.794Z,-0.30
2018-03-25T06:11:18.990Z,0.10
2018-03-25T06:13:47.923Z,0.50
2018-03-25T06:16:16.057Z,0.50
2018-03-25T06:18:44.211Z,0.40
2018-03-25T06:21:12.420Z,0.90
2018-03-25T06:23:40.562Z,1.20
2018-03-25T06:26:08.712Z,1.10
2018-03-25T06:28:36.862Z,1.60
2018-03-25T06:31:05.199Z,2.00
2018-03-25T06:33:33.524Z,2.30
2018-03-25T06:36:01.775Z,2.50
2018-03-25T06:38:30.707Z,3.20
2018-03-25T06:40:58.830Z,3.20
2018-03-25T06:43:27.746Z,3.40
2018-03-25T06:45:55.899Z,3.40
2018-03-25T06:48:24.834Z,4.00
2018-03-25T06:50:52.974Z,4.00
2018-03-25T06:53:21.137Z,4.30
2018-03-25T06:55:50.051Z,4.40
2018-03-25T06:58:18.189Z,4.40
2018-03-25T07:00:47.102Z,5.10
2018-03-25T07:03:15.250Z,5.10
2018-03-25T07:05:44.235Z,6.60
2018-03-25T07:08:12.442Z,6.60
2018-03-25T07:10:40.667Z,6.90
2018-03-25T07:13:08.814Z,7.00
2018-03-25T07:15:36.992Z,7.20
2018-03-25T07:18:06.335Z,7.80
2018-03-25T07:20:35.263Z,8.20
2018-03-25T07:23:03.384Z,8.20
2018-03-25T07:25:32.036Z,8.70
2018-03-25T07:28:00.187Z,9.50
2018-03-25T07:30:28.347Z,9.90
2018-03-25T07:32:56.490Z,10.80
2018-03-25T07:35:24.643Z,11.30
2018-03-25T07:37:52.778Z,11.40
2018-03-25T07:40:21.016Z,11.40
2018-03-25T07:42:49.906Z,11.20
2018-03-25T07:45:18.832Z,11.20
2018-03-25T07:47:46.961Z,11.20
2018-03-25T07:50:15.937Z,11.70
2018-03-25T07:52:44.081Z,11.70
2018-03-25T07:55:12.421Z,12.60
2018-03-25T07:57:40.702Z,13.80
2018-03-25T08:00:08.959Z,13.90
2018-03-25T08:02:38.359Z,14.40
2018-03-25T08:05:07.763Z,14.50
2018-03-25T08:07:36.666Z,15.10
2018-03-25T08:10:04.802Z,15.10
2018-03-25T08:12:33.006Z,14.60
2018-03-25T08:15:01.159Z,10.60
2018-03-25T08:17:30.075Z,12.50
2018-03-25T08:19:58.227Z,12.50
2018-03-25T08:22:26.369Z,12.30
2018-03-25T08:24:54.534Z,10.80
2018-03-25T08:27:22.881Z,12.90
2018-03-25T08:29:51.022Z,13.30
2018-03-25T08:32:19.939Z,11.70
2018-03-25T08:34:48.071Z,11.60
2018-03-25T08:37:17.003Z,14.80
2018-03-25T08:39:45.130Z,14.80
2018-03-25T08:42:14.045Z,17.00
2018-03-25T08:44:42.214Z,16.90
2018-03-25T08:47:10.376Z,14.60
2018-03-25T08:49:39.279Z,13.50
2018-03-25T08:52:07.439Z,13.40
2018-03-25T08:54:35.580Z,15.50
2018-03-25T08:57:03.729Z,15.70
2018-03-25T08:59:31.908Z,12.50
2018-03-25T09:02:00.049Z,12.20
2018-03-25T09:04:28.181Z,12.40
2018-03-25T09:06:56.323Z,13.10
2018-03-25T09:09:25.239Z,12.50
2018-03-25T09:11:53.388Z,12.50
2018-03-25T09:14:21.544Z,11.50
2018-03-25T09:16:49.676Z,12.10
2018-03-25T09:19:18.609Z,12.60
2018-03-25T09:21:46.740Z,12.60
2018-03-25T09:24:14.890Z,12.20
2018-03-25T09:26:43.923Z,17.20
2018-03-25T09:29:12.116Z,17.20
2018-03-25T09:31:40.254Z,15.40
2018-03-25T09:34:08.414Z,17.50
2018-03-25T09:36:36.549Z,19.70
2018-03-25T09:39:05.483Z,20.70
2018-03-25T09:41:33.624Z,20.70
2018-03-25T09:44:01.779Z,20.70
2018-03-25T09:46:29.916Z,21.60
2018-03-25T09:48:58.058Z,20.60
2018-03-25T09:51:27.047Z,21.00
2018-03-25T09:53:55.174Z,21.00
2018-03-25T09:56:23.328Z,20.90
2018-03-25T09:58:51.698Z,20.20
2018-03-25T10:04:17.240Z,20.00
2018-03-25T10:06:45.371Z,18.80
2018-03-25T10:09:13.540Z,16.80
2018-03-25T10:11:42.622Z,16.90
2018-03-25T10:14:11.522Z,17.40
2018-03-25T10:16:39.814Z,17.40
2018-03-25T10:19:07.951Z,19.50
2018-03-25T10:21:36.275Z,20.20
2018-03-25T10:24:04.541Z,19.00
2018-03-25T10:26:32.690Z,19.40
2018-03-25T10:29:01.825Z,17.20
2018-03-25T10:31:29.992Z,17.10
2018-03-25T10:33:58.143Z,16.80
2018-03-25T10:36:26.327Z,18.20
2018-03-25T10:38:54.464Z,19.60
2018-03-25T10:41:23.388Z,21.70
2018-03-25T10:43:51.514Z,21.70
2018-03-25T10:46:19.686Z,22.20
2018-03-25T10:48:47.820Z,22.50
2018-03-25T10:51:16.001Z,21.10
2018-03-25T10:53:44.138Z,20.70
2018-03-25T10:56:12.267Z,20.20
2018-03-25T10:58:40.426Z,21.40
2018-03-25T11:01:08.555Z,21.20
2018-03-25T11:03:36.714Z,22.30
2018-03-25T11:06:04.853Z,23.00
2018-03-25T11:08:33.001Z,22.50
2018-03-25T11:11:01.126Z,21.30
2018-03-25T11:13:29.275Z,21.80
2018-03-25T11:15:57.401Z,22.40
2018-03-25T11:18:25.547Z,22.80
2018-03-25T11:20:53.683Z,23.50
2018-03-25T11:23:21.838Z,23.90
2018-03-25T11:25:49.964Z,23.50
2018-03-25T11:28:18.379Z,21.00
2018-03-25T11:30:46.497Z,22.00
2018-03-25T11:33:15.402Z,21.30
2018-03-25T11:35:43.546Z,21.30
2018-03-25T11:38:11.711Z,22.60
2018-03-25T11:40:40.647Z,20.50
2018-03-25T11:43:08.795Z,20.50
2018-03-25T11:45:37.703Z,20.30
2018-03-25T11:48:05.874Z,20.20
2018-03-25T11:50:34.034Z,20.30
2018-03-25T11:53:02.227Z,19.50
2018-03-25T11:55:30.409Z,14.60
2018-03-25T11:57:58.544Z,17.30
2018-03-25T12:00:27.493Z,19.60
2018-03-25T12:02:55.645Z,19.50
2018-03-25T12:05:23.819Z,19.20
2018-03-25T12:07:51.971Z,18.80
2018-03-25T12:10:20.251Z,18.50
2018-03-25T12:12:48.379Z,18.70
2018-03-25T12:15:16.527Z,18.20
2018-03-25T12:17:44.658Z,18.60
2018-03-25T12:20:12.804Z,18.60
2018-03-25T12:22:41.753Z,19.00
2018-03-25T12:25:09.923Z,19.00
2018-03-25T12:27:38.049Z,18.40
2018-03-25T12:32:43.095Z,19.00
2018-03-25T12:35:26.959Z,19.20
2018-03-25T12:37:57.999Z,20.00
2018-03-25T12:40:26.169Z,20.30
2018-03-25T12:42:54.294Z,20.70
2018-03-25T12:45:22.444Z,20.20
2018-03-25T12:47:50.680Z,20.80
2018-03-25T12:50:18.815Z,20.50
2018-03-25T12:52:47.739Z,19.60
2018-03-25T12:55:15.926Z,19.60
2018-03-25T12:57:44.067Z,18.60
2018-03-25T13:00:12.201Z,18.40
2018-03-25T13:02:40.433Z,18.30
2018-03-25T13:05:08.574Z,18.40
2018-03-25T13:07:36.722Z,18.30
2018-03-25T13:10:04.847Z,18.20
2018-03-25T13:12:33.003Z,17.80
2018-03-25T13:15:01.927Z,16.60
2018-03-25T13:17:30.067Z,16.60
2018-03-25T13:19:58.202Z,16.60
2018-03-25T13:22:26.412Z,16.20
2018-03-25T13:24:54.512Z,16.40
2018-03-25T13:27:22.668Z,16.60
2018-03-25T13:29:50.790Z,17.20
2018-03-25T13:32:18.942Z,17.20
2018-03-25T13:34:47.106Z,17.40
2018-03-25T13:37:15.230Z,17.40
2018-03-25T13:39:44.132Z,16.60
2018-03-25T13:42:12.296Z,16.60
2018-03-25T13:44:41.187Z,16.20
2018-03-25T13:47:09.319Z,16.20
2018-03-25T13:49:37.467Z,15.90
2018-03-25T13:52:05.594Z,15.50
2018-03-25T13:54:33.744Z,15.40
2018-03-25T13:57:01.878Z,15.50
2018-03-25T13:59:30.026Z,15.40
2018-03-25T14:01:58.516Z,15.00
2018-03-25T14:04:26.660Z,14.90
2018-03-25T14:06:55.163Z,14.60
2018-03-25T14:09:23.303Z,14.60
2018-03-25T14:11:52.279Z,14.40
2018-03-25T14:14:20.424Z,14.40
2018-03-25T14:16:49.342Z,13.60
2018-03-25T14:19:17.495Z,13.60
2018-03-25T14:21:45.657Z,13.80
2018-03-25T14:24:13.812Z,13.90
2018-03-25T14:26:41.955Z,13.70
2018-03-25T14:29:20.423Z,13.50
2018-03-25T14:31:48.546Z,13.40
2018-03-25T14:34:16.710Z,13.60
2018-03-25T14:36:44.846Z,13.60
2018-03-25T14:39:13.007Z,13.50
2018-03-25T14:41:41.921Z,13.40
2018-03-25T14:44:11.270Z,13.00
2018-03-25T14:46:39.413Z,13.00
2018-03-25T14:49:07.547Z,12.60
2018-03-25T14:51:35.747Z,12.60
2018-03-25T14:54:04.727Z,13.10
2018-03-25T14:56:33.647Z,12.80
2018-03-25T14:59:01.783Z,12.80
2018-03-25T15:01:29.936Z,12.80
2018-03-25T15:03:58.066Z,12.50
2018-03-25T15:06:26.211Z,12.50
2018-03-25T15:08:55.115Z,12.60
2018-03-25T15:11:23.378Z,12.60
2018-03-25T15:13:51.532Z,12.50
2018-03-25T15:16:19.695Z,12.40
2018-03-25T15:18:47.836Z,12.40
2018-03-25T15:21:15.972Z,12.30
2018-03-25T15:23:44.886Z,12.30
2018-03-25T15:26:13.026Z,12.30
2018-03-25T15:28:41.180Z,12.30
2018-03-25T15:31:09.315Z,12.20
2018-03-25T15:33:37.811Z,12.10
2018-03-25T15:36:06.294Z,12.00
2018-03-25T15:38:34.427Z,11.60
2018-03-25T15:41:02.622Z,11.70
2018-03-25T15:43:30.772Z,11.60
2018-03-25T15:45:58.902Z,11.60
2018-03-25T15:48:27.817Z,11.50
2018-03-25T15:50:56.017Z,11.50
2018-03-25T15:53:24.468Z,11.60
2018-03-25T15:55:53.360Z,11.60
2018-03-25T15:58:22.279Z,11.40
2018-03-25T16:00:50.435Z,11.40
2018-03-25T16:03:18.561Z,11.20
2018-03-25T16:05:48.211Z,11.10
2018-03-25T16:08:16.366Z,11.10
2018-03-25T16:10:44.518Z,11.30
2018-03-25T16:13:12.659Z,11.40
2018-03-25T16:15:40.798Z,11.20
2018-03-25T16:18:08.930Z,11.20
2018-03-25T16:20:37.847Z,11.30
2018-03-25T16:23:06.016Z,11.20
2018-03-25T16:25:34.164Z,11.20
2018-03-25T16:28:02.667Z,11.10
2018-03-25T16:30:31.582Z,11.00
2018-03-25T16:33:01.714Z,11.00
2018-03-25T16:35:32.415Z,10.90
2018-03-25T16:38:00.546Z,10.80
2018-03-25T16:40:28.695Z,10.50
2018-03-25T16:42:56.832Z,10.40
2018-03-25T16:45:24.982Z,10.30
2018-03-25T16:47:53.203Z,10.20
2018-03-25T16:50:21.348Z,10.10
2018-03-25T16:52:49.478Z,10.00
2018-03-25T16:55:17.635Z,10.10
2018-03-25T16:57:45.769Z,10.00
2018-03-25T17:00:13.916Z,10.10
2018-03-25T17:02:42.061Z,9.90
2018-03-25T17:05:10.239Z,9.80
2018-03-25T17:07:38.374Z,9.80
2018-03-25T17:10:06.498Z,9.70
2018-03-25T17:12:35.405Z,9.40
2018-03-25T17:15:03.539Z,9.50
2018-03-25T17:17:32.450Z,9.30
2018-03-25T17:20:01.718Z,9.30
2018-03-25T17:22:30.207Z,9.20
2018-03-25T17:24:58.338Z,9.00
2018-03-25T17:27:26.478Z,8.80
2018-03-25T17:29:54.619Z,8.70
2018-03-25T17:32:22.753Z,8.40
2018-03-25T17:34:50.886Z,8.20
2018-03-25T17:37:19.051Z,8.00
2018-03-25T17:39:47.950Z,8.00
2018-03-25T17:42:16.782Z,8.00
2018-03-25T17:44:44.918Z,8.00
2018-03-25T17:47:13.061Z,7.90
2018-03-25T17:49:42.674Z,8.00
2018-03-25T17:52:11.579Z,7.80
2018-03-25T17:54:39.725Z,7.70
2018-03-25T17:57:08.657Z,7.60
2018-03-25T17:59:36.791Z,7.50
2018-03-25T18:02:05.836Z,7.30
2018-03-25T18:04:33.980Z,7.20
2018-03-25T18:07:02.178Z,7.10
2018-03-25T18:09:30.339Z,7.10
2018-03-25T18:11:58.615Z,7.10
2018-03-25T18:14:26.744Z,7.10
2018-03-25T18:16:54.894Z,6.90
2018-03-25T18:19:23.155Z,6.90
2018-03-25T18:21:51.302Z,6.70
2018-03-25T18:24:20.519Z,6.70
2018-03-25T18:26:59.390Z,6.70
2018-03-25T18:29:27.682Z,6.70
2018-03-25T18:31:55.862Z,6.50
2018-03-25T18:34:24.040Z,6.40
2018-03-25T18:36:52.177Z,6.50
2018-03-25T18:39:20.355Z,6.60
2018-03-25T18:41:48.489Z,6.60
2018-03-25T18:44:18.181Z,5.60
2018-03-25T18:46:46.318Z,5.70
2018-03-25T18:49:14.535Z,5.50
2018-03-25T18:51:42.614Z,5.30
2018-03-25T18:54:10.828Z,5.50
2018-03-25T18:56:39.819Z,5.60
2018-03-25T18:59:07.959Z,5.60
2018-03-25T19:01:36.958Z,5.90
2018-03-25T19:04:05.139Z,5.80
2018-03-25T19:06:33.350Z,5.90
2018-03-25T19:09:01.522Z,5.90
2018-03-25T19:11:29.748Z,6.00
2018-03-25T19:13:58.706Z,6.20
2018-03-25T19:16:26.905Z,6.20
2018-03-25T19:18:55.086Z,6.20
2018-03-25T19:21:24.057Z,6.00
2018-03-25T19:23:52.966Z,5.90
2018-03-25T19:26:21.165Z,5.90
2018-03-25T19:28:49.331Z,5.80
2018-03-25T19:31:17.553Z,5.70
2018-03-25T19:33:45.698Z,5.60
2018-03-25T19:36:14.654Z,5.10
2018-03-25T19:38:42.869Z,5.10
2018-03-25T19:41:11.019Z,5.00
2018-03-25T19:43:39.513Z,5.10
2018-03-25T19:46:11.385Z,5.40
2018-03-25T19:48:42.033Z,5.40
2018-03-25T19:51:12.931Z,5.50
2018-03-25T19:53:44.980Z,5.50
2018-03-25T19:56:13.492Z,5.50
2018-03-25T19:58:44.916Z,5.40
2018-03-25T20:01:19.228Z,5.20
2018-03-25T20:03:49.041Z,5.20
2018-03-25T20:06:19.568Z,5.30
2018-03-25T20:08:49.905Z,4.90
2018-03-25T20:11:18.956Z,4.60
2018-03-25T20:13:50.733Z,4.90
2018-03-25T20:16:20.548Z,4.80
2018-03-25T20:18:55.608Z,5.00
2018-03-25T20:21:26.991Z,4.90
2018-03-25T20:23:55.150Z,5.00
2018-03-25T20:26:25.005Z,4.90
2018-03-25T20:28:53.140Z,4.90
2018-03-25T20:31:22.063Z,4.80
2018-03-25T20:33:50.241Z,4.80
2018-03-25T20:36:18.472Z,4.80
2018-03-25T20:38:46.630Z,4.70
2018-03-25T20:41:14.925Z,4.60
2018-03-25T20:43:43.849Z,4.60
2018-03-25T20:46:12.075Z,4.60
2018-03-25T20:48:41.075Z,4.40
2018-03-25T20:51:09.799Z,4.40
2018-03-25T20:53:37.930Z,4.40
2018-03-25T20:56:06.943Z,4.30
2018-03-25T20:58:35.380Z,4.30
2018-03-25T21:01:03.600Z,4.40
2018-03-25T21:03:31.765Z,4.20
2018-03-25T21:06:00.013Z,4.10
2018-03-25T21:08:28.200Z,4.00
2018-03-25T21:10:56.562Z,3.60
2018-03-25T21:13:24.741Z,3.60
2018-03-25T21:15:53.678Z,3.50
2018-03-25T21:18:22.765Z,3.60
2018-03-25T21:20:51.247Z,3.60
2018-03-25T21:23:19.394Z,3.60
2018-03-25T21:25:47.599Z,3.30
2018-03-25T21:28:15.865Z,3.10
2018-03-25T21:30:44.015Z,3.40
2018-03-25T21:33:12.146Z,3.60
2018-03-25T21:35:41.176Z,3.60
2018-03-25T21:38:09.349Z,3.60
2018-03-25T21:40:37.614Z,3.70
2018-03-25T21:43:06.085Z,3.60
2018-03-25T21:45:37.413Z,3.60
2018-03-25T21:48:06.342Z,3.60
2018-03-25T21:50:34.503Z,3.50
2018-03-25T21:53:02.699Z,3.50
2018-03-25T21:55:31.404Z,3.50
2018-03-25T21:58:00.601Z,3.40
2018-03-25T22:00:28.762Z,3.40
2018-03-25T22:02:56.929Z,3.50
2018-03-25T22:05:25.145Z,3.50
2018-03-25T22:07:54.129Z,3.70
2018-03-25T22:10:22.272Z,3.70
2018-03-25T22:12:51.121Z,3.70
2018-03-25T22:15:19.557Z,3.60
2018-03-25T22:17:48.266Z,3.60
2018-03-25T22:20:17.158Z,3.40
2018-03-25T22:22:45.563Z,3.30
2018-03-25T22:25:13.790Z,3.30
2018-03-25T22:27:42.726Z,3.20
2018-03-25T22:30:10.866Z,3.20
2018-03-25T22:32:39.780Z,3.20
2018-03-25T22:35:07.926Z,3.20
2018-03-25T22:37:36.882Z,3.20
2018-03-25T22:40:05.024Z,3.10
2018-03-25T22:42:33.159Z,3.10
2018-03-25T22:45:02.107Z,3.00
2018-03-25T22:47:30.263Z,3.00
2018-03-25T22:49:58.411Z,3.10
2018-03-25T22:52:26.540Z,3.00
2018-03-25T22:54:54.691Z,2.80
2018-03-25T22:57:22.819Z,2.90
2018-03-25T22:59:50.977Z,2.80
2018-03-25T23:02:19.859Z,2.80
2018-03-25T23:04:48.788Z,2.80
2018-03-25T23:07:16.938Z,2.80
2018-03-25T23:09:45.095Z,2.80
2018-03-25T23:12:14.042Z,2.90
2018-03-25T23:14:42.179Z,2.80
2018-03-25T23:17:10.399Z,2.70
2018-03-25T23:19:39.287Z,2.70
2018-03-25T23:22:07.494Z,2.70
2018-03-25T23:24:35.618Z,2.10
2018-03-25T23:27:03.767Z,2.30
2018-03-25T23:29:31.892Z,2.50
2018-03-25T23:32:00.050Z,2.50
2018-03-25T23:34:28.964Z,2.50
2018-03-25T23:36:57.870Z,2.50
2018-03-25T23:39:26.774Z,2.40
2018-03-25T23:41:54.923Z,2.40
2018-03-25T23:44:23.833Z,2.30
2018-03-25T23:46:51.978Z,2.30
2018-03-25T23:49:20.108Z,2.00
2018-03-25T23:51:48.263Z,2.00
2018-03-25T23:54:16.396Z,2.10
2018-03-25T23:56:45.315Z,1.90
2018-03-25T23:59:13.445Z,1.90
